sensor_id;sensor_type;location;lat;lon;timestamp;P1;durP1;ratioP1;P2;durP2;ratioP2
45128;SDS011;35512;56.312;101.728;2023-04-09T00:02:28;0.50;;;0.50;;
45128;SDS011;35512;56.312;101.728;2023-04-09T00:04:57;0.50;;;0.50;;
45128;SDS011;35512;56.312;101.728;2023-04-09T00:07:29;0.50;;;0.50;;
45128;SDS011;35512;56.312;101.728;2023-04-09T00:09:58;0.50;;;0.50;;
45128;SDS011;35512;56.312;101.728;2023-04-09T00:12:29;0.50;;;0.50;;
45128;SDS011;35512;56.312;101.728;2023-04-09T00:14:58;0.50;;;0.50;;
45128;SDS011;35512;56.312;101.728;2023-04-09T00:17:27;0.50;;;0.50;;
45128;SDS011;35512;56.312;101.728;2023-04-09T00:19:56;0.50;;;0.50;;
45128;SDS011;35512;56.312;101.728;2023-04-09T00:22:24;0.50;;;0.50;;
45128;SDS011;35512;56.312;101.728;2023-04-09T00:24:53;0.50;;;0.50;;
45128;SDS011;35512;56.312;101.728;2023-04-09T00:27:22;0.50;;;0.50;;
45128;SDS011;35512;56.312;101.728;2023-04-09T00:29:55;0.50;;;0.50;;
45128;SDS011;35512;56.312;101.728;2023-04-09T00:32:24;0.50;;;0.50;;
45128;SDS011;35512;56.312;101.728;2023-04-09T00:34:52;0.60;;;0.60;;
45128;SDS011;35512;56.312;101.728;2023-04-09T00:37:21;0.55;;;0.55;;
45128;SDS011;35512;56.312;101.728;2023-04-09T00:39:50;0.50;;;0.50;;
45128;SDS011;35512;56.312;101.728;2023-04-09T00:42:19;0.50;;;0.50;;
45128;SDS011;35512;56.312;101.728;2023-04-09T00:44:49;0.50;;;0.50;;
45128;SDS011;35512;56.312;101.728;2023-04-09T00:47:18;0.50;;;0.50;;
45128;SDS011;35512;56.312;101.728;2023-04-09T00:49:47;0.50;;;0.50;;
45128;SDS011;35512;56.312;101.728;2023-04-09T00:52:16;0.50;;;0.50;;
45128;SDS011;35512;56.312;101.728;2023-04-09T00:54:45;0.50;;;0.50;;
45128;SDS011;35512;56.312;101.728;2023-04-09T00:57:17;0.50;;;0.50;;
45128;SDS011;35512;56.312;101.728;2023-04-09T00:59:46;0.50;;;0.50;;
45128;SDS011;35512;56.312;101.728;2023-04-09T01:02:15;0.50;;;0.50;;
45128;SDS011;35512;56.312;101.728;2023-04-09T01:04:45;0.50;;;0.50;;
45128;SDS011;35512;56.312;101.728;2023-04-09T01:12:32;0.50;;;0.50;;
45128;SDS011;35512;56.312;101.728;2023-04-09T01:15:10;0.50;;;0.50;;
45128;SDS011;35512;56.312;101.728;2023-04-09T01:17:47;0.50;;;0.50;;
45128;SDS011;35512;56.312;101.728;2023-04-09T01:20:32;0.50;;;0.50;;
45128;SDS011;35512;56.312;101.728;2023-04-09T01:23:28;0.50;;;0.50;;
45128;SDS011;35512;56.312;101.728;2023-04-09T01:28:42;0.50;;;0.50;;
45128;SDS011;35512;56.312;101.728;2023-04-09T01:31:14;0.50;;;0.50;;
45128;SDS011;35512;56.312;101.728;2023-04-09T01:33:45;0.40;;;0.40;;
45128;SDS011;35512;56.312;101.728;2023-04-09T01:36:15;0.50;;;0.50;;
45128;SDS011;35512;56.312;101.728;2023-04-09T01:38:44;0.40;;;0.40;;
45128;SDS011;35512;56.312;101.728;2023-04-09T01:41:17;0.40;;;0.40;;
45128;SDS011;35512;56.312;101.728;2023-04-09T01:43:50;0.40;;;0.40;;
45128;SDS011;35512;56.312;101.728;2023-04-09T01:46:20;0.40;;;0.40;;
45128;SDS011;35512;56.312;101.728;2023-04-09T01:48:50;0.45;;;0.45;;
45128;SDS011;35512;56.312;101.728;2023-04-09T01:51:20;0.40;;;0.40;;
45128;SDS011;35512;56.312;101.728;2023-04-09T01:53:49;0.50;;;0.50;;
45128;SDS011;35512;56.312;101.728;2023-04-09T01:56:18;0.40;;;0.40;;
45128;SDS011;35512;56.312;101.728;2023-04-09T01:58:47;0.50;;;0.50;;
45128;SDS011;35512;56.312;101.728;2023-04-09T02:01:31;0.50;;;0.50;;
45128;SDS011;35512;56.312;101.728;2023-04-09T02:04:09;0.50;;;0.50;;
45128;SDS011;35512;56.312;101.728;2023-04-09T02:06:46;0.40;;;0.40;;
45128;SDS011;35512;56.312;101.728;2023-04-09T02:09:20;0.50;;;0.50;;
45128;SDS011;35512;56.312;101.728;2023-04-09T02:11:51;0.40;;;0.40;;
45128;SDS011;35512;56.312;101.728;2023-04-09T02:14:23;0.40;;;0.40;;
45128;SDS011;35512;56.312;101.728;2023-04-09T02:16:55;0.40;;;0.40;;
45128;SDS011;35512;56.312;101.728;2023-04-09T02:19:23;0.40;;;0.40;;
45128;SDS011;35512;56.312;101.728;2023-04-09T02:21:52;0.40;;;0.40;;
45128;SDS011;35512;56.312;101.728;2023-04-09T02:24:21;0.40;;;0.40;;
45128;SDS011;35512;56.312;101.728;2023-04-09T02:26:50;0.40;;;0.40;;
45128;SDS011;35512;56.312;101.728;2023-04-09T02:29:19;0.30;;;0.30;;
45128;SDS011;35512;56.312;101.728;2023-04-09T02:31:48;0.40;;;0.40;;
45128;SDS011;35512;56.312;101.728;2023-04-09T02:34:20;0.40;;;0.40;;
45128;SDS011;35512;56.312;101.728;2023-04-09T02:36:51;0.40;;;0.40;;
45128;SDS011;35512;56.312;101.728;2023-04-09T02:39:19;0.40;;;0.40;;
45128;SDS011;35512;56.312;101.728;2023-04-09T02:41:48;0.40;;;0.40;;
45128;SDS011;35512;56.312;101.728;2023-04-09T02:44:17;0.40;;;0.40;;
45128;SDS011;35512;56.312;101.728;2023-04-09T02:46:46;0.40;;;0.40;;
45128;SDS011;35512;56.312;101.728;2023-04-09T02:49:19;0.40;;;0.40;;
45128;SDS011;35512;56.312;101.728;2023-04-09T02:51:48;0.40;;;0.40;;
45128;SDS011;35512;56.312;101.728;2023-04-09T02:54:16;0.40;;;0.40;;
45128;SDS011;35512;56.312;101.728;2023-04-09T02:56:45;0.40;;;0.40;;
45128;SDS011;35512;56.312;101.728;2023-04-09T02:59:14;0.40;;;0.40;;
45128;SDS011;35512;56.312;101.728;2023-04-09T03:01:44;0.40;;;0.40;;
45128;SDS011;35512;56.312;101.728;2023-04-09T03:04:13;0.40;;;0.40;;
45128;SDS011;35512;56.312;101.728;2023-04-09T03:06:42;0.30;;;0.30;;
45128;SDS011;35512;56.312;101.728;2023-04-09T03:09:11;0.40;;;0.40;;
45128;SDS011;35512;56.312;101.728;2023-04-09T03:11:40;0.40;;;0.40;;
45128;SDS011;35512;56.312;101.728;2023-04-09T03:14:09;0.40;;;0.40;;
45128;SDS011;35512;56.312;101.728;2023-04-09T03:16:38;0.40;;;0.40;;
45128;SDS011;35512;56.312;101.728;2023-04-09T03:19:06;0.40;;;0.40;;
45128;SDS011;35512;56.312;101.728;2023-04-09T03:21:36;0.40;;;0.40;;
45128;SDS011;35512;56.312;101.728;2023-04-09T03:24:05;0.47;;;0.47;;
45128;SDS011;35512;56.312;101.728;2023-04-09T03:26:34;0.50;;;0.50;;
45128;SDS011;35512;56.312;101.728;2023-04-09T03:29:05;0.40;;;0.40;;
45128;SDS011;35512;56.312;101.728;2023-04-09T03:31:35;0.50;;;0.50;;
45128;SDS011;35512;56.312;101.728;2023-04-09T03:34:04;0.40;;;0.40;;
45128;SDS011;35512;56.312;101.728;2023-04-09T03:36:33;0.50;;;0.50;;
45128;SDS011;35512;56.312;101.728;2023-04-09T03:39:04;0.40;;;0.40;;
45128;SDS011;35512;56.312;101.728;2023-04-09T03:41:40;0.40;;;0.40;;
45128;SDS011;35512;56.312;101.728;2023-04-09T03:44:13;0.40;;;0.40;;
45128;SDS011;35512;56.312;101.728;2023-04-09T03:47:02;0.40;;;0.40;;
45128;SDS011;35512;56.312;101.728;2023-04-09T03:49:31;0.40;;;0.40;;
45128;SDS011;35512;56.312;101.728;2023-04-09T03:52:17;0.50;;;0.50;;
45128;SDS011;35512;56.312;101.728;2023-04-09T03:54:52;0.40;;;0.40;;
45128;SDS011;35512;56.312;101.728;2023-04-09T03:57:24;0.45;;;0.45;;
45128;SDS011;35512;56.312;101.728;2023-04-09T03:59:54;0.40;;;0.40;;
45128;SDS011;35512;56.312;101.728;2023-04-09T04:02:24;0.40;;;0.40;;
45128;SDS011;35512;56.312;101.728;2023-04-09T04:04:59;0.40;;;0.40;;
45128;SDS011;35512;56.312;101.728;2023-04-09T04:07:33;0.40;;;0.40;;
45128;SDS011;35512;56.312;101.728;2023-04-09T04:10:08;0.40;;;0.40;;
45128;SDS011;35512;56.312;101.728;2023-04-09T04:12:42;0.40;;;0.40;;
45128;SDS011;35512;56.312;101.728;2023-04-09T04:15:19;0.40;;;0.40;;
45128;SDS011;35512;56.312;101.728;2023-04-09T04:17:53;0.43;;;0.43;;
45128;SDS011;35512;56.312;101.728;2023-04-09T04:20:46;0.40;;;0.40;;
45128;SDS011;35512;56.312;101.728;2023-04-09T04:23:14;0.40;;;0.40;;
45128;SDS011;35512;56.312;101.728;2023-04-09T04:26:09;0.40;;;0.40;;
45128;SDS011;35512;56.312;101.728;2023-04-09T04:28:40;0.40;;;0.40;;
45128;SDS011;35512;56.312;101.728;2023-04-09T04:31:14;0.40;;;0.40;;
45128;SDS011;35512;56.312;101.728;2023-04-09T04:33:43;0.40;;;0.40;;
45128;SDS011;35512;56.312;101.728;2023-04-09T04:36:14;0.40;;;0.40;;
45128;SDS011;35512;56.312;101.728;2023-04-09T04:38:51;0.40;;;0.40;;
45128;SDS011;35512;56.312;101.728;2023-04-09T04:41:31;0.40;;;0.40;;
45128;SDS011;35512;56.312;101.728;2023-04-09T04:44:09;0.40;;;0.40;;
45128;SDS011;35512;56.312;101.728;2023-04-09T04:46:39;0.40;;;0.40;;
45128;SDS011;35512;56.312;101.728;2023-04-09T04:49:08;0.40;;;0.40;;
45128;SDS011;35512;56.312;101.728;2023-04-09T04:51:44;0.40;;;0.40;;
45128;SDS011;35512;56.312;101.728;2023-04-09T04:54:15;0.40;;;0.40;;
45128;SDS011;35512;56.312;101.728;2023-04-09T04:56:49;0.40;;;0.40;;
45128;SDS011;35512;56.312;101.728;2023-04-09T04:59:30;0.40;;;0.40;;
45128;SDS011;35512;56.312;101.728;2023-04-09T05:02:06;0.40;;;0.40;;
45128;SDS011;35512;56.312;101.728;2023-04-09T05:04:50;0.40;;;0.40;;
45128;SDS011;35512;56.312;101.728;2023-04-09T05:07:24;0.40;;;0.40;;
45128;SDS011;35512;56.312;101.728;2023-04-09T05:09:56;0.40;;;0.40;;
45128;SDS011;35512;56.312;101.728;2023-04-09T05:12:26;0.40;;;0.40;;
45128;SDS011;35512;56.312;101.728;2023-04-09T05:14:55;0.30;;;0.30;;
45128;SDS011;35512;56.312;101.728;2023-04-09T05:17:24;0.38;;;0.38;;
45128;SDS011;35512;56.312;101.728;2023-04-09T05:19:53;0.40;;;0.40;;
45128;SDS011;35512;56.312;101.728;2023-04-09T05:22:30;0.40;;;0.40;;
45128;SDS011;35512;56.312;101.728;2023-04-09T05:24:59;0.40;;;0.40;;
45128;SDS011;35512;56.312;101.728;2023-04-09T05:27:29;0.30;;;0.30;;
45128;SDS011;35512;56.312;101.728;2023-04-09T05:30:00;0.40;;;0.40;;
45128;SDS011;35512;56.312;101.728;2023-04-09T05:32:30;0.40;;;0.40;;
45128;SDS011;35512;56.312;101.728;2023-04-09T05:35:00;0.40;;;0.40;;
45128;SDS011;35512;56.312;101.728;2023-04-09T05:37:30;0.40;;;0.40;;
45128;SDS011;35512;56.312;101.728;2023-04-09T05:40:00;0.30;;;0.30;;
45128;SDS011;35512;56.312;101.728;2023-04-09T05:42:30;0.40;;;0.40;;
45128;SDS011;35512;56.312;101.728;2023-04-09T05:45:02;0.40;;;0.40;;
45128;SDS011;35512;56.312;101.728;2023-04-09T05:47:32;0.32;;;0.32;;
45128;SDS011;35512;56.312;101.728;2023-04-09T05:50:12;0.30;;;0.30;;
45128;SDS011;35512;56.312;101.728;2023-04-09T05:52:42;0.35;;;0.35;;
45128;SDS011;35512;56.312;101.728;2023-04-09T05:55:14;0.40;;;0.40;;
45128;SDS011;35512;56.312;101.728;2023-04-09T05:57:57;0.40;;;0.40;;
45128;SDS011;35512;56.312;101.728;2023-04-09T06:00:26;0.30;;;0.30;;
45128;SDS011;35512;56.312;101.728;2023-04-09T06:02:56;0.40;;;0.40;;
45128;SDS011;35512;56.312;101.728;2023-04-09T06:05:26;0.30;;;0.30;;
45128;SDS011;35512;56.312;101.728;2023-04-09T06:07:55;0.30;;;0.30;;
45128;SDS011;35512;56.312;101.728;2023-04-09T06:10:24;0.30;;;0.30;;
45128;SDS011;35512;56.312;101.728;2023-04-09T06:12:53;0.40;;;0.40;;
45128;SDS011;35512;56.312;101.728;2023-04-09T06:15:22;0.38;;;0.38;;
45128;SDS011;35512;56.312;101.728;2023-04-09T06:17:51;0.40;;;0.40;;
45128;SDS011;35512;56.312;101.728;2023-04-09T06:20:20;0.40;;;0.40;;
45128;SDS011;35512;56.312;101.728;2023-04-09T06:22:49;0.30;;;0.30;;
45128;SDS011;35512;56.312;101.728;2023-04-09T06:25:18;0.30;;;0.30;;
45128;SDS011;35512;56.312;101.728;2023-04-09T06:27:47;0.30;;;0.30;;
45128;SDS011;35512;56.312;101.728;2023-04-09T06:30:15;0.40;;;0.40;;
45128;SDS011;35512;56.312;101.728;2023-04-09T06:32:44;0.30;;;0.30;;
45128;SDS011;35512;56.312;101.728;2023-04-09T06:35:21;0.30;;;0.30;;
45128;SDS011;35512;56.312;101.728;2023-04-09T06:37:51;0.30;;;0.30;;
45128;SDS011;35512;56.312;101.728;2023-04-09T06:40:19;0.30;;;0.30;;
45128;SDS011;35512;56.312;101.728;2023-04-09T06:42:50;0.30;;;0.30;;
45128;SDS011;35512;56.312;101.728;2023-04-09T06:45:27;0.50;;;0.50;;
45128;SDS011;35512;56.312;101.728;2023-04-09T06:48:01;0.30;;;0.30;;
45128;SDS011;35512;56.312;101.728;2023-04-09T06:50:30;0.30;;;0.30;;
45128;SDS011;35512;56.312;101.728;2023-04-09T06:52:59;0.30;;;0.30;;
45128;SDS011;35512;56.312;101.728;2023-04-09T06:55:28;0.30;;;0.30;;
45128;SDS011;35512;56.312;101.728;2023-04-09T06:57:57;0.30;;;0.30;;
45128;SDS011;35512;56.312;101.728;2023-04-09T07:00:26;0.30;;;0.30;;
45128;SDS011;35512;56.312;101.728;2023-04-09T07:02:55;0.40;;;0.40;;
45128;SDS011;35512;56.312;101.728;2023-04-09T07:05:25;0.30;;;0.30;;
45128;SDS011;35512;56.312;101.728;2023-04-09T07:07:54;0.30;;;0.30;;
45128;SDS011;35512;56.312;101.728;2023-04-09T07:10:23;0.40;;;0.40;;
45128;SDS011;35512;56.312;101.728;2023-04-09T07:12:52;0.30;;;0.30;;
45128;SDS011;35512;56.312;101.728;2023-04-09T07:15:21;0.30;;;0.30;;
45128;SDS011;35512;56.312;101.728;2023-04-09T07:17:50;0.30;;;0.30;;
45128;SDS011;35512;56.312;101.728;2023-04-09T07:20:19;0.30;;;0.30;;
45128;SDS011;35512;56.312;101.728;2023-04-09T07:22:48;0.30;;;0.30;;
45128;SDS011;35512;56.312;101.728;2023-04-09T07:25:17;0.30;;;0.30;;
45128;SDS011;35512;56.312;101.728;2023-04-09T07:27:47;0.30;;;0.30;;
45128;SDS011;35512;56.312;101.728;2023-04-09T07:30:17;0.30;;;0.30;;
45128;SDS011;35512;56.312;101.728;2023-04-09T07:32:45;0.30;;;0.30;;
45128;SDS011;35512;56.312;101.728;2023-04-09T07:35:14;0.30;;;0.30;;
45128;SDS011;35512;56.312;101.728;2023-04-09T07:37:45;0.30;;;0.30;;
45128;SDS011;35512;56.312;101.728;2023-04-09T07:40:14;0.30;;;0.30;;
45128;SDS011;35512;56.312;101.728;2023-04-09T07:42:43;0.40;;;0.40;;
45128;SDS011;35512;56.312;101.728;2023-04-09T07:45:13;0.40;;;0.40;;
45128;SDS011;35512;56.312;101.728;2023-04-09T07:47:42;0.40;;;0.40;;
45128;SDS011;35512;56.312;101.728;2023-04-09T07:50:11;0.30;;;0.30;;
45128;SDS011;35512;56.312;101.728;2023-04-09T07:52:40;0.30;;;0.30;;
45128;SDS011;35512;56.312;101.728;2023-04-09T07:55:09;0.30;;;0.30;;
45128;SDS011;35512;56.312;101.728;2023-04-09T07:57:39;0.30;;;0.30;;
45128;SDS011;35512;56.312;101.728;2023-04-09T08:00:09;0.40;;;0.40;;
45128;SDS011;35512;56.312;101.728;2023-04-09T08:02:39;0.30;;;0.30;;
45128;SDS011;35512;56.312;101.728;2023-04-09T08:05:09;0.40;;;0.40;;
45128;SDS011;35512;56.312;101.728;2023-04-09T08:07:38;0.35;;;0.35;;
45128;SDS011;35512;56.312;101.728;2023-04-09T08:10:08;0.40;;;0.40;;
45128;SDS011;35512;56.312;101.728;2023-04-09T08:12:42;0.30;;;0.30;;
45128;SDS011;35512;56.312;101.728;2023-04-09T08:15:11;0.30;;;0.30;;
45128;SDS011;35512;56.312;101.728;2023-04-09T08:17:40;0.40;;;0.40;;
45128;SDS011;35512;56.312;101.728;2023-04-09T08:20:09;0.40;;;0.40;;
45128;SDS011;35512;56.312;101.728;2023-04-09T08:22:39;0.40;;;0.40;;
45128;SDS011;35512;56.312;101.728;2023-04-09T08:25:08;0.40;;;0.40;;
45128;SDS011;35512;56.312;101.728;2023-04-09T08:27:38;0.30;;;0.30;;
45128;SDS011;35512;56.312;101.728;2023-04-09T08:30:07;0.32;;;0.32;;
45128;SDS011;35512;56.312;101.728;2023-04-09T08:32:36;0.38;;;0.38;;
45128;SDS011;35512;56.312;101.728;2023-04-09T08:35:05;0.30;;;0.30;;
45128;SDS011;35512;56.312;101.728;2023-04-09T08:37:36;0.40;;;0.40;;
45128;SDS011;35512;56.312;101.728;2023-04-09T08:40:05;0.30;;;0.30;;
45128;SDS011;35512;56.312;101.728;2023-04-09T08:42:35;0.30;;;0.30;;
45128;SDS011;35512;56.312;101.728;2023-04-09T08:45:10;0.40;;;0.40;;
45128;SDS011;35512;56.312;101.728;2023-04-09T08:47:40;0.40;;;0.40;;
45128;SDS011;35512;56.312;101.728;2023-04-09T08:50:12;0.30;;;0.30;;
45128;SDS011;35512;56.312;101.728;2023-04-09T08:52:43;0.30;;;0.30;;
45128;SDS011;35512;56.312;101.728;2023-04-09T08:55:14;0.30;;;0.30;;
45128;SDS011;35512;56.312;101.728;2023-04-09T08:57:43;0.40;;;0.40;;
45128;SDS011;35512;56.312;101.728;2023-04-09T09:00:13;0.40;;;0.40;;
45128;SDS011;35512;56.312;101.728;2023-04-09T09:05:36;0.30;;;0.30;;
45128;SDS011;35512;56.312;101.728;2023-04-09T09:08:11;0.30;;;0.30;;
45128;SDS011;35512;56.312;101.728;2023-04-09T09:10:42;0.40;;;0.40;;
45128;SDS011;35512;56.312;101.728;2023-04-09T09:13:23;0.40;;;0.40;;
45128;SDS011;35512;56.312;101.728;2023-04-09T09:15:54;0.40;;;0.40;;
45128;SDS011;35512;56.312;101.728;2023-04-09T09:18:41;0.40;;;0.40;;
45128;SDS011;35512;56.312;101.728;2023-04-09T09:21:12;0.40;;;0.40;;
45128;SDS011;35512;56.312;101.728;2023-04-09T09:23:42;0.30;;;0.30;;
45128;SDS011;35512;56.312;101.728;2023-04-09T09:26:12;0.40;;;0.40;;
45128;SDS011;35512;56.312;101.728;2023-04-09T09:28:52;0.30;;;0.30;;
45128;SDS011;35512;56.312;101.728;2023-04-09T09:31:21;0.30;;;0.30;;
45128;SDS011;35512;56.312;101.728;2023-04-09T09:33:51;0.30;;;0.30;;
45128;SDS011;35512;56.312;101.728;2023-04-09T09:36:31;0.38;;;0.38;;
45128;SDS011;35512;56.312;101.728;2023-04-09T09:39:04;0.40;;;0.40;;
45128;SDS011;35512;56.312;101.728;2023-04-09T09:41:38;0.40;;;0.40;;
45128;SDS011;35512;56.312;101.728;2023-04-09T09:44:09;0.30;;;0.30;;
45128;SDS011;35512;56.312;101.728;2023-04-09T09:46:40;0.40;;;0.40;;
45128;SDS011;35512;56.312;101.728;2023-04-09T09:49:09;0.30;;;0.30;;
45128;SDS011;35512;56.312;101.728;2023-04-09T09:51:39;0.30;;;0.30;;
45128;SDS011;35512;56.312;101.728;2023-04-09T09:54:10;0.40;;;0.40;;
45128;SDS011;35512;56.312;101.728;2023-04-09T09:56:40;0.38;;;0.38;;
45128;SDS011;35512;56.312;101.728;2023-04-09T09:59:21;0.40;;;0.40;;
45128;SDS011;35512;56.312;101.728;2023-04-09T10:02:04;0.40;;;0.40;;
45128;SDS011;35512;56.312;101.728;2023-04-09T10:04:35;0.40;;;0.40;;
45128;SDS011;35512;56.312;101.728;2023-04-09T10:07:05;0.30;;;0.30;;
45128;SDS011;35512;56.312;101.728;2023-04-09T10:09:36;0.30;;;0.30;;
45128;SDS011;35512;56.312;101.728;2023-04-09T10:12:08;0.40;;;0.40;;
45128;SDS011;35512;56.312;101.728;2023-04-09T10:14:39;0.30;;;0.30;;
45128;SDS011;35512;56.312;101.728;2023-04-09T10:17:10;0.40;;;0.40;;
45128;SDS011;35512;56.312;101.728;2023-04-09T10:19:40;0.38;;;0.38;;
45128;SDS011;35512;56.312;101.728;2023-04-09T10:22:15;0.40;;;0.40;;
45128;SDS011;35512;56.312;101.728;2023-04-09T10:24:46;0.40;;;0.40;;
45128;SDS011;35512;56.312;101.728;2023-04-09T10:27:18;0.40;;;0.40;;
45128;SDS011;35512;56.312;101.728;2023-04-09T10:29:48;0.40;;;0.40;;
45128;SDS011;35512;56.312;101.728;2023-04-09T10:32:21;0.38;;;0.38;;
45128;SDS011;35512;56.312;101.728;2023-04-09T10:34:56;0.40;;;0.40;;
45128;SDS011;35512;56.312;101.728;2023-04-09T10:37:29;0.40;;;0.40;;
45128;SDS011;35512;56.312;101.728;2023-04-09T10:39:59;0.40;;;0.40;;
45128;SDS011;35512;56.312;101.728;2023-04-09T10:42:37;0.40;;;0.40;;
45128;SDS011;35512;56.312;101.728;2023-04-09T10:45:13;0.40;;;0.40;;
45128;SDS011;35512;56.312;101.728;2023-04-09T10:47:45;0.40;;;0.40;;
45128;SDS011;35512;56.312;101.728;2023-04-09T10:50:25;0.40;;;0.40;;
45128;SDS011;35512;56.312;101.728;2023-04-09T10:52:56;0.40;;;0.40;;
45128;SDS011;35512;56.312;101.728;2023-04-09T10:56:10;0.40;;;0.40;;
45128;SDS011;35512;56.312;101.728;2023-04-09T10:58:22;0.40;;;0.40;;
45128;SDS011;35512;56.312;101.728;2023-04-09T11:00:52;0.40;;;0.40;;
45128;SDS011;35512;56.312;101.728;2023-04-09T11:06:00;0.30;;;0.30;;
45128;SDS011;35512;56.312;101.728;2023-04-09T11:08:33;0.40;;;0.40;;
45128;SDS011;35512;56.312;101.728;2023-04-09T11:11:03;0.40;;;0.40;;
45128;SDS011;35512;56.312;101.728;2023-04-09T11:13:32;0.40;;;0.40;;
45128;SDS011;35512;56.312;101.728;2023-04-09T11:16:01;0.40;;;0.40;;
45128;SDS011;35512;56.312;101.728;2023-04-09T11:18:34;0.40;;;0.40;;
45128;SDS011;35512;56.312;101.728;2023-04-09T11:21:04;0.40;;;0.40;;
45128;SDS011;35512;56.312;101.728;2023-04-09T11:23:33;0.40;;;0.40;;
45128;SDS011;35512;56.312;101.728;2023-04-09T11:26:02;0.40;;;0.40;;
45128;SDS011;35512;56.312;101.728;2023-04-09T11:28:33;0.40;;;0.40;;
45128;SDS011;35512;56.312;101.728;2023-04-09T11:31:03;0.40;;;0.40;;
45128;SDS011;35512;56.312;101.728;2023-04-09T11:33:34;0.40;;;0.40;;
45128;SDS011;35512;56.312;101.728;2023-04-09T11:36:06;0.50;;;0.50;;
45128;SDS011;35512;56.312;101.728;2023-04-09T11:38:35;0.40;;;0.40;;
45128;SDS011;35512;56.312;101.728;2023-04-09T11:41:05;0.40;;;0.40;;
45128;SDS011;35512;56.312;101.728;2023-04-09T11:43:39;0.40;;;0.40;;
45128;SDS011;35512;56.312;101.728;2023-04-09T11:46:08;0.40;;;0.40;;
45128;SDS011;35512;56.312;101.728;2023-04-09T11:48:37;0.40;;;0.40;;
45128;SDS011;35512;56.312;101.728;2023-04-09T11:51:06;0.40;;;0.40;;
45128;SDS011;35512;56.312;101.728;2023-04-09T11:53:36;0.40;;;0.40;;
45128;SDS011;35512;56.312;101.728;2023-04-09T11:56:05;0.50;;;0.50;;
45128;SDS011;35512;56.312;101.728;2023-04-09T11:58:34;0.50;;;0.50;;
45128;SDS011;35512;56.312;101.728;2023-04-09T12:01:05;0.40;;;0.40;;
45128;SDS011;35512;56.312;101.728;2023-04-09T12:03:34;0.50;;;0.50;;
45128;SDS011;35512;56.312;101.728;2023-04-09T12:06:05;0.45;;;0.45;;
45128;SDS011;35512;56.312;101.728;2023-04-09T12:08:34;0.40;;;0.40;;
45128;SDS011;35512;56.312;101.728;2023-04-09T12:11:10;0.50;;;0.50;;
45128;SDS011;35512;56.312;101.728;2023-04-09T12:13:40;0.45;;;0.45;;
45128;SDS011;35512;56.312;101.728;2023-04-09T12:16:12;0.50;;;0.50;;
45128;SDS011;35512;56.312;101.728;2023-04-09T12:18:42;0.40;;;0.40;;
45128;SDS011;35512;56.312;101.728;2023-04-09T12:21:11;0.50;;;0.50;;
45128;SDS011;35512;56.312;101.728;2023-04-09T12:23:40;0.50;;;0.50;;
45128;SDS011;35512;56.312;101.728;2023-04-09T12:26:09;0.40;;;0.40;;
45128;SDS011;35512;56.312;101.728;2023-04-09T12:28:38;0.50;;;0.50;;
45128;SDS011;35512;56.312;101.728;2023-04-09T12:31:09;0.40;;;0.40;;
45128;SDS011;35512;56.312;101.728;2023-04-09T12:33:39;0.40;;;0.40;;
45128;SDS011;35512;56.312;101.728;2023-04-09T12:36:08;0.50;;;0.50;;
45128;SDS011;35512;56.312;101.728;2023-04-09T12:38:37;0.50;;;0.50;;
45128;SDS011;35512;56.312;101.728;2023-04-09T12:41:06;0.40;;;0.40;;
45128;SDS011;35512;56.312;101.728;2023-04-09T12:43:36;0.40;;;0.40;;
45128;SDS011;35512;56.312;101.728;2023-04-09T12:46:05;0.40;;;0.40;;
45128;SDS011;35512;56.312;101.728;2023-04-09T12:48:35;0.40;;;0.40;;
45128;SDS011;35512;56.312;101.728;2023-04-09T12:51:04;0.40;;;0.40;;
45128;SDS011;35512;56.312;101.728;2023-04-09T12:53:33;0.50;;;0.50;;
45128;SDS011;35512;56.312;101.728;2023-04-09T12:56:03;0.50;;;0.50;;
45128;SDS011;35512;56.312;101.728;2023-04-09T12:58:32;0.50;;;0.50;;
45128;SDS011;35512;56.312;101.728;2023-04-09T13:01:01;0.50;;;0.50;;
45128;SDS011;35512;56.312;101.728;2023-04-09T13:03:31;0.50;;;0.50;;
45128;SDS011;35512;56.312;101.728;2023-04-09T13:06:01;0.50;;;0.50;;
45128;SDS011;35512;56.312;101.728;2023-04-09T13:08:29;0.50;;;0.50;;
45128;SDS011;35512;56.312;101.728;2023-04-09T13:10:59;0.50;;;0.50;;
45128;SDS011;35512;56.312;101.728;2023-04-09T13:13:28;0.40;;;0.40;;
45128;SDS011;35512;56.312;101.728;2023-04-09T13:15:59;0.40;;;0.40;;
45128;SDS011;35512;56.312;101.728;2023-04-09T13:18:28;0.40;;;0.40;;
45128;SDS011;35512;56.312;101.728;2023-04-09T13:20:57;0.50;;;0.50;;
45128;SDS011;35512;56.312;101.728;2023-04-09T13:23:26;0.50;;;0.50;;
45128;SDS011;35512;56.312;101.728;2023-04-09T13:25:55;0.40;;;0.40;;
45128;SDS011;35512;56.312;101.728;2023-04-09T13:28:24;0.50;;;0.50;;
45128;SDS011;35512;56.312;101.728;2023-04-09T13:30:53;0.40;;;0.40;;
45128;SDS011;35512;56.312;101.728;2023-04-09T13:33:23;0.40;;;0.40;;
45128;SDS011;35512;56.312;101.728;2023-04-09T13:35:51;0.45;;;0.45;;
45128;SDS011;35512;56.312;101.728;2023-04-09T13:38:20;0.40;;;0.40;;
45128;SDS011;35512;56.312;101.728;2023-04-09T13:40:49;0.45;;;0.45;;
45128;SDS011;35512;56.312;101.728;2023-04-09T13:43:18;0.40;;;0.40;;
45128;SDS011;35512;56.312;101.728;2023-04-09T13:45:48;0.40;;;0.40;;
45128;SDS011;35512;56.312;101.728;2023-04-09T13:48:17;0.40;;;0.40;;
45128;SDS011;35512;56.312;101.728;2023-04-09T13:50:46;0.40;;;0.40;;
45128;SDS011;35512;56.312;101.728;2023-04-09T13:53:15;0.47;;;0.47;;
45128;SDS011;35512;56.312;101.728;2023-04-09T13:55:44;0.50;;;0.50;;
45128;SDS011;35512;56.312;101.728;2023-04-09T13:58:14;0.40;;;0.40;;
45128;SDS011;35512;56.312;101.728;2023-04-09T14:00:43;0.40;;;0.40;;
45128;SDS011;35512;56.312;101.728;2023-04-09T14:03:12;0.40;;;0.40;;
45128;SDS011;35512;56.312;101.728;2023-04-09T14:05:41;0.40;;;0.40;;
45128;SDS011;35512;56.312;101.728;2023-04-09T14:08:10;0.40;;;0.40;;
45128;SDS011;35512;56.312;101.728;2023-04-09T14:10:39;0.40;;;0.40;;
45128;SDS011;35512;56.312;101.728;2023-04-09T14:13:08;0.50;;;0.50;;
45128;SDS011;35512;56.312;101.728;2023-04-09T14:15:39;0.40;;;0.40;;
45128;SDS011;35512;56.312;101.728;2023-04-09T14:18:08;0.50;;;0.50;;
45128;SDS011;35512;56.312;101.728;2023-04-09T14:20:37;0.40;;;0.40;;
45128;SDS011;35512;56.312;101.728;2023-04-09T14:23:06;0.40;;;0.40;;
45128;SDS011;35512;56.312;101.728;2023-04-09T14:25:35;0.40;;;0.40;;
45128;SDS011;35512;56.312;101.728;2023-04-09T14:28:05;0.40;;;0.40;;
45128;SDS011;35512;56.312;101.728;2023-04-09T14:30:34;0.40;;;0.40;;
45128;SDS011;35512;56.312;101.728;2023-04-09T14:33:03;0.50;;;0.50;;
45128;SDS011;35512;56.312;101.728;2023-04-09T14:35:32;0.40;;;0.40;;
45128;SDS011;35512;56.312;101.728;2023-04-09T14:38:01;0.50;;;0.50;;
45128;SDS011;35512;56.312;101.728;2023-04-09T14:40:33;0.40;;;0.40;;
45128;SDS011;35512;56.312;101.728;2023-04-09T14:43:03;0.50;;;0.50;;
45128;SDS011;35512;56.312;101.728;2023-04-09T14:45:32;0.50;;;0.50;;
45128;SDS011;35512;56.312;101.728;2023-04-09T14:48:01;0.40;;;0.40;;
45128;SDS011;35512;56.312;101.728;2023-04-09T14:50:30;0.50;;;0.50;;
45128;SDS011;35512;56.312;101.728;2023-04-09T14:53:01;0.50;;;0.50;;
45128;SDS011;35512;56.312;101.728;2023-04-09T14:55:31;0.50;;;0.50;;
45128;SDS011;35512;56.312;101.728;2023-04-09T14:58:00;0.40;;;0.40;;